Overview Statistics Trail Chart Weather Telemetry Raw packets
 

This is the latest recevied weather packets stored in our database for station/object YD1OCG-15. If no packets are shown the sender has not sent any weather packets the latest 10 day(s).

<< 9 10 11 12 13 14 15 >>
Time Temp. Humidity Pressure Rain* Wind** Luminosity Snow
1788096384 26.67° C 72% 1015 hPa - - - -
1788094585 27.22° C 77% 1015 hPa - - - -
1788092784 27.22° C 73% 1014 hPa - - - -
1788090984 27.78° C 77% 1014 hPa - - - -
1788089185 27.78° C 74% 1012 hPa - - - -
1788087384 28.33° C 69% 1013 hPa - - - -
1788085583 28.89° C 67% 1011 hPa - - - -
1788083543 28.89° C 66% 1012 hPa - - - -
1788081744 29.44° C 63% 1011 hPa - - - -
1788079943 29.44° C 47% 1011 hPa - - - -
1788078144 30.56° C 64% 1011 hPa - - - -
1788076343 30° C 65% 1011 hPa - - - -
1788074543 31.11° C 80% 1012 hPa - - - -
1788072744 31.67° C 10% - - - - -
1788070943 30.56° C 72% 1013 hPa - - - -
1788069143 31.67° C 10% - - - - -
1788067583 31.11° C 86% 1014 hPa - - - -
1788065784 31.11° C 10% - - - - -
1788063984 30° C 90% 1015 hPa - - - -
1788062183 30° C 90% 1015 hPa - - - -
1788060383 28.33° C 77% 1016 hPa - - - -
1788058584 27.78° C 78% 1016 hPa - - - -
1788056783 26.67° C 70% 1017 hPa - - - -
1788053184 26.67° C 62% 1016 hPa - - - -
1788051383 26.67° C 72% 1016 hPa - - - -

* Rain since midnight (hover to see other rain measurements)
** Current wind speed in m/s (hover to see current wind gust speed)